< < Back
Terminal Aerodrome Forecast


Current Version              Previous Versions:   1  2  3  4  5  6  7  8  9  

Terminal Aerodrome Forecast

792
FTUS44 KBMX 272032 AAA
TAFBHM
TAF AMD
KBHM 272032Z 2721/2818 33010KT P6SM BKN060
     FM280300 34006KT P6SM SCT100=

Latest METAR

077
SAUS70 KWBC 281800 RRF
MTRBHM
METAR KBHM 281753Z 30006G16KT 10SM FEW100 SCT250 08/M08 A3027 RMK AO2
SLP251 T00831078 10094 20006 50006


USA.gov is the U.S. government's official web portal to all federal, state and local government web resources and services.